Terminal Aerodrome Forecast
Issued by NWS

Home | Current Version | Previous Version | Graphics & Text | Print | Product List | Glossary Off
Versions: 1 2 3 4 5 6 7 8 9 10 11 12 13 14 15 16 17 18 19 20 21 22 23

000
FTUS43 KTOP 012300
TAFMHK
TAF
KMHK 012325Z 0200/0224 32018G27KT 2SM -SN BR SCT015 OVC021
     FM020200 33015G22KT P6SM OVC021
     FM020700 32007KT P6SM SCT015
     FM021600 18009KT P6SM BKN150=

USA.gov is the U.S. government's official web portal to all federal, state and local government web resources and services.